2015/5/3 日曜日

羽田Nエリア

LX-GVV(A319)@RJTT/HND 2015/05/02 14:46LX-MCE(A319)@RJTT/HND 2015/05/02 14:47N462AL(YS11)@RJTT/HND 2015/05/02 15:10モノレールからNエリアを覗くといろいろいたのでルフトの後に寄ってきました。

旧消防署脇へ行くと、N7にはGlobal Jet Luxemberg(SVW)のLX-GVV(A319)が、N5には同じSVWのLX-MCE(A319)が駐機していました。2機のA319を撮った後は天空橋へ戻る途中でN36に駐機しているaerolabのN462AL(YS11)を撮ってNエリア巡りは終了です。

久しぶりにNエリアを巡ってきました。全日空ハンガーを初めとして幾つかのビルが無くなっていました。旧消防署脇での撮影は可能でしたが、将来このエリアはどのようになるのでしょうか。

Tags: , ,

  • 羽田のBizJet
  • スタアラジャンボ
  • レトロ塗装
  • B737が主役
  • 久しぶりの城南島
  • 羽田でジャンボ
  • 3年半ぶりの羽田(ANA編)
  • 3年半ぶりの羽田(JAL編)
  • 航空連合
  • 今日も羽田へ。
  • 羽田でジャンボ
  • YS-11とDC-8
  • 羽田の国際線
  • 久しぶりの羽田
  • 九州遠征
  • 新聞記者にもマニアがいますね。
  • いよいよ聖火がやって来ます。
  • 着陸復航
  • 花火大会。
  • 羽田に戻って来ました。
  • Filed under: Airport, Spotting — ◇敏郎◇ @ 20:00:58

    2008/5/31 土曜日

    新聞記者にもマニアがいますね。

    28日から開催されていた第4回アフリカ開発会議関連で数多くの特別機が飛来しています。

    昨日(30日)のasahi.comにはこんな記事があります。記事にはNエリアの消防署脇から撮ったと思われるスーダン政府のIL62(ST-PRA)の写真が掲載されていますが、これは完全にマニアの仕業ですね。
    最近、新聞には鉄道関連の記事も多くみられますが、こちらもマニアの仕業ですね。

    ちなみに、◇敏郎◇が確認しているアフリカ開発会議関連の飛来機は次のとおりです。
    今回は飛来機が多く羽田のスロットが足りなかったのか、成田にも飛来しています。また、駐機スポットも足りないのか、一部が新千歳や中部、関西に疎開しています。

    A7-HHJ/A319 G-NMAK/A319
    N88ZL
    /B703
    J2-KBA/B721 P4-FLY/B721 N800AK/B721 XT-BFA/B722 TZ-MBA/B722
    5R-MRM
    /B733 ET-ALK/B737 A6-RJX/B737
    N767KS
    /B762
    ST-PRA
    /IL62
    SX-IFA/MD83
    5N-FGO/F900 VP-BEG/F900 ZS-ESA/GLEX 5X-UEF/GLF4

    Tags: ,

  • 羽田のBizJet
  • スタアラジャンボ
  • 海外LCC (その3)
  • 海外LCC (その2)
  • 海外LCC (その1)
  • SKYTEAM塗装機
  • 国内LCC
  • HondaJet
  • 羽田Nエリア
  • レトロ塗装
  • B737が主役
  • 久しぶりの城南島
  • 羽田でジャンボ
  • 3年半ぶりの羽田(ANA編)
  • 3年半ぶりの羽田(JAL編)
  • special marking
  • チャーターやエキストラ
  • こんな塗装のジャンボが見れるとは。
  • ジャンボは貨物機??
  • 少なくなったジャンボ
  • クロスバイクで成田へ
  • 航空連合
  • 今日も羽田へ。
  • 羽田でジャンボ
  • 羽田の国際線
  • 久しぶりの羽田
  • 九州遠征
  • 成田が30周年。
  • いよいよ聖火がやって来ます。
  • 着陸復航
  • 今日の飛来機
  • 花火大会。
  • 二度目の飛来。
  • 羽田に戻って来ました。
  • 成田に行って来ました。(25)
  • 成田に行って来ました。(24)
  • Filed under: Airport — ◇敏郎◇ @ 7:26:36

    2008/5/20 火曜日

    成田が30周年。

    今日で成田国際空港(当時は新東京国際空港だったなぁ〜。)が開港30周年だそうです。

    ◇敏郎◇が飛行機を撮りだしたのもちょうど成田が開港した直後ですから、Spotter歴も30年近くということになります。B707やDC-8、さらにはトライデントやVC10等、黒い煙をはきながらの離着陸が昨日のように思い出されます。
    飛来機情報もインターネットという便利なものもなく、現地での情報交換がメインでした。まさに古き良き時代でした。

    開港前からいろいろあった成田ですが、30周年目も幸運には恵まれないようです。
    RJAA 192330Z 16030G42KT 3000 SHRA BR FEW006 BKN010 19/18 Q0995 TEMPO BKN005 RMK 2CU006 7CU010 A2940 P/FR
    RJAA 192319Z 16029G45KT 3000 SHRA BR SCT007 BKN010 19/18 Q0996 WS RWY16R WS RWY16L RMK 3CU007 7CU010 A2941
    RJAA 192300Z 16029G48KT 3000 -SHRA BR FEW007 BKN010 19/17 Q0996 TEMPO SHRA BKN005 RMK 2CU007 7CU010 A2943

    こんな天気で今日が日本初就航のSIAのA380(9V-SKC)も中部へダイバートしたようです。

    これからもいろいろあるだろうけれど、頑張れ成田!!  応援しているぞ。

    Tag:

  • 海外LCC (その3)
  • 海外LCC (その2)
  • 海外LCC (その1)
  • SKYTEAM塗装機
  • 国内LCC
  • HondaJet
  • special marking
  • チャーターやエキストラ
  • こんな塗装のジャンボが見れるとは。
  • ジャンボは貨物機??
  • 少なくなったジャンボ
  • クロスバイクで成田へ
  • 新聞記者にもマニアがいますね。
  • 今日の飛来機
  • 二度目の飛来。
  • 成田に行って来ました。(25)
  • 成田に行って来ました。(24)
  • Filed under: Airport — ◇敏郎◇ @ 21:49:48

    2007/11/20 火曜日

    遊び心

    大分空港でこんなことを始めたそうです。

    大分空港の手荷物受取所で、大皿に盛られた巨大な「エビずし」と「ウニの軍艦巻き」がベルトコンベヤーに載せられて、回転ずしのように回って出てくる。
    実は、「エビ」も「ウニ」もウレタン樹脂を焼いて固めた重さ25キロの模造品。観光振興団体「ツーリズムおおいた」が、海の幸の宝庫、大分をPRしようと始めた。
    (asahi.comより引用)

    海の幸の宝庫がアピール出来るかどうかは別として、◇敏郎◇は思わず微笑んでしまう、このような遊び心が大好きです。

    でも、必ず批判する人が出てくるんだろうなぁ~。いいじゃないですか、微笑んだんですから。

    No Tags

  • No Related Posts
  • Filed under: Airport — ◇敏郎◇ @ 16:48:53

    2007/8/11 土曜日

    花火大会。

    暦では立秋を過ぎて「秋」ですが、毎日暑い日が続いています。

    そんな中でNOTAMを見ると、全国的に花火大会が真っ盛りのようです。
    羽田でもこんなNOTAMが出ています。

    091233 RJAAYNYX
    (4526/07 NOTAMN
    Q)RJJJ/QXXXX//M/EW/000/019/
    A)RJTT B)0708110500 C)0708111120
    E)FIREWORKS WILL BE CONDUCTED AS FLW,
    1.PLACE : 10.4KM FM RJTT ARP BRG 354DEG/QTE
    : 353848N1394609E (HARUMI, CHUO-KU IN TOKYO)
    2.TOTAL : 12000SHOTS
    F)GND G)1871FT AGL)

    これは、本日開催される「第20回東京湾大華火祭」で20時20分までに12,000発打ち上げられるようです。18時現在の羽田のMETARは、
    RJTT 110900Z 20011KT 9999 FEW030 31/22 Q1012
    と、まだ気温が31°Cと暑いですが、天気は最高のようです。

    また、風も20011KTなのでRWY22はでしょうから、飛行機からの花火見物も最高ですよ。

    Tags: ,

  • 羽田のBizJet
  • スタアラジャンボ
  • 羽田Nエリア
  • レトロ塗装
  • B737が主役
  • 久しぶりの城南島
  • 羽田でジャンボ
  • 3年半ぶりの羽田(ANA編)
  • 3年半ぶりの羽田(JAL編)
  • 航空連合
  • 今日も羽田へ。
  • 羽田でジャンボ
  • 羽田の国際線
  • 久しぶりの羽田
  • 九州遠征
  • 新聞記者にもマニアがいますね。
  • いよいよ聖火がやって来ます。
  • 着陸復航
  • 羽田に戻って来ました。
  • Filed under: Airport — ◇敏郎◇ @ 18:25:34
    次のページ »

    HTML convert time: 0.417 sec. Powered by WordPress ME